createdAt,value
2022-07-29T00:22:14.687Z,58.99
2022-07-29T00:52:17.819Z,60.23
2022-07-29T01:22:21.235Z,61.50
2022-07-29T01:52:24.264Z,62.44
2022-07-29T02:22:27.771Z,64.78
2022-07-29T02:52:30.965Z,65.79
2022-07-29T03:22:34.628Z,67.04
2022-07-29T03:52:37.744Z,68.18
2022-07-29T04:22:42.521Z,70.03
2022-07-29T04:52:45.593Z,69.54
2022-07-29T05:22:48.627Z,68.74
2022-07-29T05:52:51.368Z,66.25
2022-07-29T06:22:54.984Z,63.42
2022-07-29T06:52:57.753Z,59.94
2022-07-29T07:23:03.282Z,57.61
2022-07-29T07:53:06.011Z,55.33
2022-07-29T08:23:09.452Z,54.02
2022-07-29T08:53:12.536Z,52.09
2022-07-29T09:23:23.109Z,49.27
2022-07-29T09:53:28.104Z,46.77
2022-07-29T10:23:31.277Z,43.29
2022-07-29T10:53:50.436Z,40.16
2022-07-29T11:23:54.442Z,37.07
2022-07-29T11:54:01.113Z,35.94
2022-07-29T12:24:09.518Z,33.56
2022-07-29T12:54:13.003Z,31.95
2022-07-29T13:24:19.925Z,30.66
2022-07-29T13:54:23.341Z,30.39
2022-07-29T14:24:26.857Z,30.08
2022-07-29T14:54:29.655Z,29.81
2022-07-29T15:24:34.634Z,29.70
2022-07-29T15:54:37.512Z,29.01
2022-07-29T16:24:40.762Z,29.57
2022-07-29T16:54:43.922Z,30.06
2022-07-29T17:24:47.156Z,31.64
2022-07-29T17:54:50.645Z,33.05
2022-07-29T18:24:53.864Z,34.68
2022-07-29T18:54:56.929Z,35.70
2022-07-29T19:25:01.618Z,38.05
2022-07-29T19:55:07.493Z,40.73
2022-07-29T20:25:12.510Z,42.31
2022-07-29T20:55:15.746Z,44.03
2022-07-29T21:25:19.055Z,45.13
2022-07-29T21:55:25.726Z,47.49
2022-07-29T22:25:30.425Z,49.14
2022-07-29T22:55:33.842Z,49.98
2022-07-29T23:25:36.805Z,50.90
2022-07-29T23:55:40.341Z,51.67
